AirNav   Airventure
 
 1555 users online  

CL94 Plumas District Hospital Heliport
Quincy, California, USA


FAA INFORMATION EFFECTIVE 20 JULY 2017

Location

FAA Identifier: CL94
Lat/Long: 39-56-24.9000N / 120-57-43.2000W
39-56.415000N / 120-57.720000W
39.9402500 / -120.9620000
(estimated)
Elevation: 3425 ft. / 1044 m (estimated)
Variation: 17E (1985)
From city: 1 mile E of QUINCY, CA
Time zone: UTC -7 (UTC -8 during Standard Time)
Zip code: 95971

Heliport Operations

Heliport use: Private use, MEDICAL
Activation date: 08/1987
Control tower: no
ARTCC: OAKLAND CENTER
FSS: RANCHO MURIETA FLIGHT SERVICE STATION
Attendance: CONTINUOUS
Wind indicator: lighted
Segmented circle: no
Lights: FOR PERI LGTS CALL 530-283-2121.

Heliport Communications

WX AWOS-2 at 2O1 (0.8 nm E): 135.600 (530-283-6528)

Heliport Services

Runway Information

Helipad H1

Dimensions: 65 x 65 ft. / 20 x 20 m
Surface: asphalt
Runway edge lights: PERIMETER LGTS.
Latitude: 39-56.415000N
Longitude: 120-57.720000W
Elevation: 3425.0 ft.
Traffic pattern: leftleft

Heliport Ownership and Management from official FAA records

Ownership: Publicly-owned
Owner: PLUMAS HOSPITAL DISTRICT
1065 BUCKS LAKE ROAD
QUINCY, CA 95971
Phone 530-283-2121
Manager: MIKE O'MASSEY
1065 BUCKS LAKE ROAD
QUINCY, CA 95971
Phone 530-200-5143
503-283-7909

Additional Remarks

A52-H1 45' PLINES 130'; 10' BLDG 75' S; AND 14' BLDG 20' EAST OF HELIPAD.

Instrument Procedures

There are no published instrument procedures at CL94.

Some nearby airports with instrument procedures:

O02 - Nervino Airport (29 nm E)
KSVE - Susanville Municipal Airport (32 nm NE)
KOVE - Oroville Municipal Airport (41 nm SW)
KAHC - Amedee Army Airfield (42 nm NE)
KCIC - Chico Municipal Airport (42 nm W)
 
Loc | Ops | Rwys | IFR | FBO | Links
Com | Nav | Svcs | Stats | Notes


 
Area around CL94 (Plumas District Hospital Heliport)
 
Road maps at: MapQuest Bing Google
 
Aerial photo
No photo
 
Sectional chart

 
Airport distance calculator
Flying to Plumas District Hospital Heliport? Find the distance to fly.

From to CL94

Sunrise and sunset
Times for 28-Jul-2017
 Local
(UTC-7)
 Zulu
(UTC)
Morning civil twilight05:2912:29
Sunrise06:0013:00
Sunset20:2103:21
Evening civil twilight20:5103:51

Current date and time
Zulu (UTC)  28-Jul-2017 15:41:31
Local (UTC-7)  28-Jul-2017 08:41:31
 
METAR
KSVE 
31nm NE 
281515Z AUTO 00000KT 10SM CLR 19/07 A3012 RMK AO2
KOVE 
40nm SW 
281453Z AUTO 00000KT 10SM CLR 26/12 A2988 RMK AO2 SLP119 T02560122 52012
KCIC 
41nm W 
281450Z VRB05KT 25SM SKC 25/12 A2988
KBLU 
41nm S 
281452Z AUTO 00000KT 10SM CLR 23/08 A3019 RMK AO2 SLP111 T02280078 51002 TSNO
TAF
NOTAMs
Click for the latest NOTAMs
NOTAMs are issued by the DoD/FAA and will open in a separate window not controlled by AirNav.

 

 
 

Would you like to see your business listed on this page?

 If your business provides an interesting product or service to pilots, flight crews, aircraft, or users of the Plumas District Hospital Heliport, you should consider listing it here.  To start the listing process, click on the button below
 
Add a business
 

Other Pages about Plumas District Hospital Heliport

Update a link
 
Copyright © AirNav, LLC. All rights reserved. Privacy Policy  Contact